sensor_id;sensor_type;location;lat;lon;timestamp;P1;durP1;ratioP1;P2;durP2;ratioP2
45254;SDS011;30989;52.078;21.014;2023-02-15T00:01:47;44.45;;;19.75;;
45254;SDS011;30989;52.078;21.014;2023-02-15T00:04:14;38.80;;;19.98;;
45254;SDS011;30989;52.078;21.014;2023-02-15T00:06:40;44.50;;;19.15;;
45254;SDS011;30989;52.078;21.014;2023-02-15T00:09:06;44.53;;;20.17;;
45254;SDS011;30989;52.078;21.014;2023-02-15T00:11:31;47.03;;;20.05;;
45254;SDS011;30989;52.078;21.014;2023-02-15T00:14:24;44.50;;;20.27;;
45254;SDS011;30989;52.078;21.014;2023-02-15T00:16:51;50.17;;;19.90;;
45254;SDS011;30989;52.078;21.014;2023-02-15T00:19:18;45.05;;;20.23;;
45254;SDS011;30989;52.078;21.014;2023-02-15T00:21:45;49.30;;;22.38;;
45254;SDS011;30989;52.078;21.014;2023-02-15T00:24:11;56.70;;;21.95;;
45254;SDS011;30989;52.078;21.014;2023-02-15T00:26:39;52.67;;;22.10;;
45254;SDS011;30989;52.078;21.014;2023-02-15T00:29:05;46.28;;;21.63;;
45254;SDS011;30989;52.078;21.014;2023-02-15T00:31:32;54.33;;;20.42;;
45254;SDS011;30989;52.078;21.014;2023-02-15T00:34:02;50.55;;;22.17;;
45254;SDS011;30989;52.078;21.014;2023-02-15T00:36:28;50.75;;;22.08;;
45254;SDS011;30989;52.078;21.014;2023-02-15T00:38:54;62.60;;;24.15;;
45254;SDS011;30989;52.078;21.014;2023-02-15T00:41:19;44.97;;;20.85;;
45254;SDS011;30989;52.078;21.014;2023-02-15T00:43:45;48.65;;;21.85;;
45254;SDS011;30989;52.078;21.014;2023-02-15T00:46:10;50.70;;;21.73;;
45254;SDS011;30989;52.078;21.014;2023-02-15T00:48:38;54.50;;;23.05;;
45254;SDS011;30989;52.078;21.014;2023-02-15T00:51:03;51.97;;;21.17;;
45254;SDS011;30989;52.078;21.014;2023-02-15T00:53:29;50.85;;;21.40;;
45254;SDS011;30989;52.078;21.014;2023-02-15T00:55:56;48.30;;;20.65;;
45254;SDS011;30989;52.078;21.014;2023-02-15T00:58:22;51.72;;;22.80;;
45254;SDS011;30989;52.078;21.014;2023-02-15T01:00:48;53.67;;;21.58;;
45254;SDS011;30989;52.078;21.014;2023-02-15T01:03:15;47.00;;;21.42;;
45254;SDS011;30989;52.078;21.014;2023-02-15T01:05:41;48.92;;;21.50;;
45254;SDS011;30989;52.078;21.014;2023-02-15T01:08:07;54.50;;;22.20;;
45254;SDS011;30989;52.078;21.014;2023-02-15T01:10:34;52.53;;;22.63;;
45254;SDS011;30989;52.078;21.014;2023-02-15T01:13:00;55.70;;;21.75;;
45254;SDS011;30989;52.078;21.014;2023-02-15T01:15:26;48.05;;;22.08;;
45254;SDS011;30989;52.078;21.014;2023-02-15T01:17:52;46.33;;;21.08;;
45254;SDS011;30989;52.078;21.014;2023-02-15T01:20:20;43.78;;;20.25;;
45254;SDS011;30989;52.078;21.014;2023-02-15T01:22:48;46.25;;;21.60;;
45254;SDS011;30989;52.078;21.014;2023-02-15T01:25:17;47.28;;;21.60;;
45254;SDS011;30989;52.078;21.014;2023-02-15T01:27:45;56.22;;;21.63;;
45254;SDS011;30989;52.078;21.014;2023-02-15T01:30:12;59.83;;;22.80;;
45254;SDS011;30989;52.078;21.014;2023-02-15T01:32:38;55.50;;;21.30;;
45254;SDS011;30989;52.078;21.014;2023-02-15T01:35:04;50.30;;;20.45;;
45254;SDS011;30989;52.078;21.014;2023-02-15T01:37:30;49.63;;;22.35;;
45254;SDS011;30989;52.078;21.014;2023-02-15T01:39:57;54.13;;;21.40;;
45254;SDS011;30989;52.078;21.014;2023-02-15T01:42:23;48.20;;;21.98;;
45254;SDS011;30989;52.078;21.014;2023-02-15T01:44:54;53.47;;;21.50;;
45254;SDS011;30989;52.078;21.014;2023-02-15T01:50:18;48.00;;;21.30;;
45254;SDS011;30989;52.078;21.014;2023-02-15T01:55:37;46.25;;;19.98;;
45254;SDS011;30989;52.078;21.014;2023-02-15T01:58:05;49.70;;;20.23;;
45254;SDS011;30989;52.078;21.014;2023-02-15T02:00:32;45.20;;;19.45;;
45254;SDS011;30989;52.078;21.014;2023-02-15T02:02:59;45.40;;;20.98;;
45254;SDS011;30989;52.078;21.014;2023-02-15T02:05:25;51.60;;;20.30;;
45254;SDS011;30989;52.078;21.014;2023-02-15T02:07:51;48.55;;;22.17;;
45254;SDS011;30989;52.078;21.014;2023-02-15T02:10:21;42.55;;;18.98;;
45254;SDS011;30989;52.078;21.014;2023-02-15T02:12:49;51.22;;;23.58;;
45254;SDS011;30989;52.078;21.014;2023-02-15T02:15:19;47.47;;;20.92;;
45254;SDS011;30989;52.078;21.014;2023-02-15T02:20:49;49.95;;;21.08;;
45254;SDS011;30989;52.078;21.014;2023-02-15T02:35:00;45.10;;;21.20;;
45254;SDS011;30989;52.078;21.014;2023-02-15T02:43:27;52.85;;;21.70;;
45254;SDS011;30989;52.078;21.014;2023-02-15T02:46:02;49.17;;;21.47;;
45254;SDS011;30989;52.078;21.014;2023-02-15T02:48:36;52.58;;;21.83;;
45254;SDS011;30989;52.078;21.014;2023-02-15T02:51:03;46.15;;;21.60;;
45254;SDS011;30989;52.078;21.014;2023-02-15T02:53:29;56.80;;;23.80;;
45254;SDS011;30989;52.078;21.014;2023-02-15T02:55:58;55.25;;;21.38;;
45254;SDS011;30989;52.078;21.014;2023-02-15T02:58:29;58.50;;;23.42;;
45254;SDS011;30989;52.078;21.014;2023-02-15T03:01:12;49.08;;;21.10;;
45254;SDS011;30989;52.078;21.014;2023-02-15T03:03:56;52.10;;;20.63;;
45254;SDS011;30989;52.078;21.014;2023-02-15T03:09:15;49.10;;;21.20;;
45254;SDS011;30989;52.078;21.014;2023-02-15T03:11:46;51.50;;;20.35;;
45254;SDS011;30989;52.078;21.014;2023-02-15T03:14:14;48.72;;;21.77;;
45254;SDS011;30989;52.078;21.014;2023-02-15T03:16:43;54.05;;;23.00;;
45254;SDS011;30989;52.078;21.014;2023-02-15T03:19:14;52.90;;;20.92;;
45254;SDS011;30989;52.078;21.014;2023-02-15T03:21:45;46.22;;;21.33;;
45254;SDS011;30989;52.078;21.014;2023-02-15T03:24:39;49.20;;;21.33;;
45254;SDS011;30989;52.078;21.014;2023-02-15T03:27:13;51.85;;;22.17;;
45254;SDS011;30989;52.078;21.014;2023-02-15T03:29:44;50.40;;;20.90;;
45254;SDS011;30989;52.078;21.014;2023-02-15T03:32:12;48.63;;;20.52;;
45254;SDS011;30989;52.078;21.014;2023-02-15T03:34:40;57.28;;;23.42;;
45254;SDS011;30989;52.078;21.014;2023-02-15T03:40:18;45.55;;;20.17;;
45254;SDS011;30989;52.078;21.014;2023-02-15T03:43:30;49.60;;;20.83;;
45254;SDS011;30989;52.078;21.014;2023-02-15T03:46:11;46.55;;;20.40;;
45254;SDS011;30989;52.078;21.014;2023-02-15T03:48:55;52.05;;;20.38;;
45254;SDS011;30989;52.078;21.014;2023-02-15T03:51:27;46.78;;;19.42;;
45254;SDS011;30989;52.078;21.014;2023-02-15T03:54:03;52.47;;;20.35;;
45254;SDS011;30989;52.078;21.014;2023-02-15T03:56:33;51.17;;;18.75;;
45254;SDS011;30989;52.078;21.014;2023-02-15T03:59:00;43.10;;;16.90;;
45254;SDS011;30989;52.078;21.014;2023-02-15T04:01:56;44.70;;;17.08;;
45254;SDS011;30989;52.078;21.014;2023-02-15T04:04:45;35.05;;;13.90;;
45254;SDS011;30989;52.078;21.014;2023-02-15T04:07:12;32.63;;;13.88;;
45254;SDS011;30989;52.078;21.014;2023-02-15T04:09:38;27.30;;;11.25;;
45254;SDS011;30989;52.078;21.014;2023-02-15T04:12:22;36.42;;;13.30;;
45254;SDS011;30989;52.078;21.014;2023-02-15T04:14:48;33.22;;;13.85;;
45254;SDS011;30989;52.078;21.014;2023-02-15T04:17:32;30.27;;;13.63;;
45254;SDS011;30989;52.078;21.014;2023-02-15T04:19:57;37.28;;;15.18;;
45254;SDS011;30989;52.078;21.014;2023-02-15T04:22:41;35.75;;;14.95;;
45254;SDS011;30989;52.078;21.014;2023-02-15T04:25:25;33.75;;;13.85;;
45254;SDS011;30989;52.078;21.014;2023-02-15T04:27:51;35.67;;;14.27;;
45254;SDS011;30989;52.078;21.014;2023-02-15T04:30:24;30.42;;;13.35;;
45254;SDS011;30989;52.078;21.014;2023-02-15T04:32:50;33.78;;;14.18;;
45254;SDS011;30989;52.078;21.014;2023-02-15T04:35:16;29.20;;;13.02;;
45254;SDS011;30989;52.078;21.014;2023-02-15T04:37:42;32.70;;;14.00;;
45254;SDS011;30989;52.078;21.014;2023-02-15T04:40:09;29.33;;;11.98;;
45254;SDS011;30989;52.078;21.014;2023-02-15T04:42:37;34.47;;;14.75;;
45254;SDS011;30989;52.078;21.014;2023-02-15T04:45:03;33.53;;;13.32;;
45254;SDS011;30989;52.078;21.014;2023-02-15T04:47:29;42.17;;;15.00;;
45254;SDS011;30989;52.078;21.014;2023-02-15T04:49:54;28.75;;;12.88;;
45254;SDS011;30989;52.078;21.014;2023-02-15T04:52:19;34.60;;;14.57;;
45254;SDS011;30989;52.078;21.014;2023-02-15T04:54:45;28.88;;;11.52;;
45254;SDS011;30989;52.078;21.014;2023-02-15T04:57:11;30.90;;;11.13;;
45254;SDS011;30989;52.078;21.014;2023-02-15T04:59:37;26.85;;;11.55;;
45254;SDS011;30989;52.078;21.014;2023-02-15T05:02:02;30.55;;;13.82;;
45254;SDS011;30989;52.078;21.014;2023-02-15T05:04:28;29.98;;;10.60;;
45254;SDS011;30989;52.078;21.014;2023-02-15T05:06:53;26.00;;;12.27;;
45254;SDS011;30989;52.078;21.014;2023-02-15T05:09:19;30.23;;;11.43;;
45254;SDS011;30989;52.078;21.014;2023-02-15T05:11:44;31.38;;;12.63;;
45254;SDS011;30989;52.078;21.014;2023-02-15T05:14:10;31.35;;;12.95;;
45254;SDS011;30989;52.078;21.014;2023-02-15T05:16:36;34.60;;;13.70;;
45254;SDS011;30989;52.078;21.014;2023-02-15T05:19:01;31.15;;;13.45;;
45254;SDS011;30989;52.078;21.014;2023-02-15T05:21:27;37.70;;;14.68;;
45254;SDS011;30989;52.078;21.014;2023-02-15T05:23:53;32.30;;;14.93;;
45254;SDS011;30989;52.078;21.014;2023-02-15T05:26:19;34.45;;;13.75;;
45254;SDS011;30989;52.078;21.014;2023-02-15T05:29:05;35.33;;;14.13;;
45254;SDS011;30989;52.078;21.014;2023-02-15T05:31:31;32.13;;;11.63;;
45254;SDS011;30989;52.078;21.014;2023-02-15T05:33:57;30.83;;;13.80;;
45254;SDS011;30989;52.078;21.014;2023-02-15T05:36:23;31.23;;;14.00;;
45254;SDS011;30989;52.078;21.014;2023-02-15T05:38:49;35.35;;;13.70;;
45254;SDS011;30989;52.078;21.014;2023-02-15T05:41:15;31.25;;;13.63;;
45254;SDS011;30989;52.078;21.014;2023-02-15T05:43:40;34.83;;;13.10;;
45254;SDS011;30989;52.078;21.014;2023-02-15T05:46:06;40.60;;;15.40;;
45254;SDS011;30989;52.078;21.014;2023-02-15T05:48:32;33.20;;;14.38;;
45254;SDS011;30989;52.078;21.014;2023-02-15T05:53:47;37.25;;;14.05;;
45254;SDS011;30989;52.078;21.014;2023-02-15T05:56:12;35.65;;;15.10;;
45254;SDS011;30989;52.078;21.014;2023-02-15T05:58:39;43.53;;;16.35;;
45254;SDS011;30989;52.078;21.014;2023-02-15T06:01:16;35.72;;;15.27;;
45254;SDS011;30989;52.078;21.014;2023-02-15T06:03:43;37.10;;;14.88;;
45254;SDS011;30989;52.078;21.014;2023-02-15T06:06:10;39.40;;;14.85;;
45254;SDS011;30989;52.078;21.014;2023-02-15T06:08:36;40.10;;;14.90;;
45254;SDS011;30989;52.078;21.014;2023-02-15T06:11:02;45.22;;;15.15;;
45254;SDS011;30989;52.078;21.014;2023-02-15T06:13:28;43.17;;;16.33;;
45254;SDS011;30989;52.078;21.014;2023-02-15T06:15:54;50.80;;;20.05;;
45254;SDS011;30989;52.078;21.014;2023-02-15T06:18:20;44.30;;;17.77;;
45254;SDS011;30989;52.078;21.014;2023-02-15T06:20:45;42.53;;;16.02;;
45254;SDS011;30989;52.078;21.014;2023-02-15T06:23:11;41.55;;;18.38;;
45254;SDS011;30989;52.078;21.014;2023-02-15T06:25:36;39.22;;;15.23;;
45254;SDS011;30989;52.078;21.014;2023-02-15T06:28:02;39.38;;;15.38;;
45254;SDS011;30989;52.078;21.014;2023-02-15T06:30:27;37.95;;;15.63;;
45254;SDS011;30989;52.078;21.014;2023-02-15T06:32:53;37.17;;;13.93;;
45254;SDS011;30989;52.078;21.014;2023-02-15T06:35:18;43.47;;;15.68;;
45254;SDS011;30989;52.078;21.014;2023-02-15T06:37:45;39.42;;;16.40;;
45254;SDS011;30989;52.078;21.014;2023-02-15T06:40:11;33.55;;;14.20;;
45254;SDS011;30989;52.078;21.014;2023-02-15T06:42:37;39.85;;;15.38;;
45254;SDS011;30989;52.078;21.014;2023-02-15T06:45:03;38.85;;;14.60;;
45254;SDS011;30989;52.078;21.014;2023-02-15T06:47:29;40.40;;;14.50;;
45254;SDS011;30989;52.078;21.014;2023-02-15T06:49:54;31.65;;;12.07;;
45254;SDS011;30989;52.078;21.014;2023-02-15T06:52:20;22.60;;;9.68;;
45254;SDS011;30989;52.078;21.014;2023-02-15T06:54:45;29.17;;;11.50;;
45254;SDS011;30989;52.078;21.014;2023-02-15T06:57:11;29.98;;;11.95;;
45254;SDS011;30989;52.078;21.014;2023-02-15T06:59:36;29.77;;;12.55;;
45254;SDS011;30989;52.078;21.014;2023-02-15T07:02:02;28.08;;;12.20;;
45254;SDS011;30989;52.078;21.014;2023-02-15T07:04:27;30.35;;;12.50;;
45254;SDS011;30989;52.078;21.014;2023-02-15T07:06:54;26.95;;;12.30;;
45254;SDS011;30989;52.078;21.014;2023-02-15T07:09:20;23.88;;;9.13;;
45254;SDS011;30989;52.078;21.014;2023-02-15T07:11:45;30.48;;;12.75;;
45254;SDS011;30989;52.078;21.014;2023-02-15T07:14:29;28.23;;;11.63;;
45254;SDS011;30989;52.078;21.014;2023-02-15T07:16:55;26.52;;;11.80;;
45254;SDS011;30989;52.078;21.014;2023-02-15T07:19:20;28.20;;;11.85;;
45254;SDS011;30989;52.078;21.014;2023-02-15T07:21:46;29.30;;;11.80;;
45254;SDS011;30989;52.078;21.014;2023-02-15T07:24:11;28.15;;;11.90;;
45254;SDS011;30989;52.078;21.014;2023-02-15T07:26:37;32.38;;;12.20;;
45254;SDS011;30989;52.078;21.014;2023-02-15T07:29:02;32.75;;;12.05;;
45254;SDS011;30989;52.078;21.014;2023-02-15T07:31:28;28.77;;;11.63;;
45254;SDS011;30989;52.078;21.014;2023-02-15T07:33:53;44.47;;;16.13;;
45254;SDS011;30989;52.078;21.014;2023-02-15T07:36:19;42.58;;;16.95;;
45254;SDS011;30989;52.078;21.014;2023-02-15T07:38:44;39.65;;;15.23;;
45254;SDS011;30989;52.078;21.014;2023-02-15T07:41:11;44.95;;;18.00;;
45254;SDS011;30989;52.078;21.014;2023-02-15T07:43:39;41.88;;;15.38;;
45254;SDS011;30989;52.078;21.014;2023-02-15T07:46:07;31.65;;;14.20;;
45254;SDS011;30989;52.078;21.014;2023-02-15T07:48:35;43.33;;;16.95;;
45254;SDS011;30989;52.078;21.014;2023-02-15T07:51:01;41.65;;;16.15;;
45254;SDS011;30989;52.078;21.014;2023-02-15T07:53:28;41.42;;;16.08;;
45254;SDS011;30989;52.078;21.014;2023-02-15T07:55:54;39.03;;;15.40;;
45254;SDS011;30989;52.078;21.014;2023-02-15T07:58:24;39.03;;;14.93;;
45254;SDS011;30989;52.078;21.014;2023-02-15T08:01:10;36.25;;;15.80;;
45254;SDS011;30989;52.078;21.014;2023-02-15T08:03:35;39.08;;;14.93;;
45254;SDS011;30989;52.078;21.014;2023-02-15T08:06:01;36.80;;;15.48;;
45254;SDS011;30989;52.078;21.014;2023-02-15T08:08:26;46.95;;;17.42;;
45254;SDS011;30989;52.078;21.014;2023-02-15T08:13:45;49.00;;;15.88;;
45254;SDS011;30989;52.078;21.014;2023-02-15T08:18:48;45.53;;;16.38;;
45254;SDS011;30989;52.078;21.014;2023-02-15T08:21:13;41.42;;;15.68;;
45254;SDS011;30989;52.078;21.014;2023-02-15T08:23:39;51.15;;;18.88;;
45254;SDS011;30989;52.078;21.014;2023-02-15T08:26:04;47.22;;;19.27;;
45254;SDS011;30989;52.078;21.014;2023-02-15T08:28:30;41.50;;;16.15;;
45254;SDS011;30989;52.078;21.014;2023-02-15T08:31:03;42.22;;;17.13;;
45254;SDS011;30989;52.078;21.014;2023-02-15T08:33:31;52.40;;;17.85;;
45254;SDS011;30989;52.078;21.014;2023-02-15T08:36:01;42.38;;;17.63;;
45254;SDS011;30989;52.078;21.014;2023-02-15T08:38:28;36.28;;;14.10;;
45254;SDS011;30989;52.078;21.014;2023-02-15T08:40:53;35.92;;;15.82;;
45254;SDS011;30989;52.078;21.014;2023-02-15T08:43:19;37.22;;;13.18;;
45254;SDS011;30989;52.078;21.014;2023-02-15T08:45:44;33.75;;;14.07;;
45254;SDS011;30989;52.078;21.014;2023-02-15T08:48:09;29.73;;;10.95;;
45254;SDS011;30989;52.078;21.014;2023-02-15T08:50:35;31.17;;;11.55;;
45254;SDS011;30989;52.078;21.014;2023-02-15T08:53:00;34.08;;;11.57;;
45254;SDS011;30989;52.078;21.014;2023-02-15T08:55:26;26.52;;;10.65;;
45254;SDS011;30989;52.078;21.014;2023-02-15T08:57:51;24.05;;;9.77;;
45254;SDS011;30989;52.078;21.014;2023-02-15T09:00:20;32.67;;;11.10;;
45254;SDS011;30989;52.078;21.014;2023-02-15T09:02:50;29.67;;;11.70;;
45254;SDS011;30989;52.078;21.014;2023-02-15T09:05:15;29.58;;;11.85;;
45254;SDS011;30989;52.078;21.014;2023-02-15T09:07:41;25.65;;;10.07;;
45254;SDS011;30989;52.078;21.014;2023-02-15T09:10:06;27.13;;;10.90;;
45254;SDS011;30989;52.078;21.014;2023-02-15T09:12:32;28.35;;;11.60;;
45254;SDS011;30989;52.078;21.014;2023-02-15T09:14:57;30.65;;;11.48;;
45254;SDS011;30989;52.078;21.014;2023-02-15T09:17:23;28.80;;;11.45;;
45254;SDS011;30989;52.078;21.014;2023-02-15T09:19:48;30.70;;;11.85;;
45254;SDS011;30989;52.078;21.014;2023-02-15T09:22:14;26.33;;;11.70;;
45254;SDS011;30989;52.078;21.014;2023-02-15T09:24:39;34.97;;;12.60;;
45254;SDS011;30989;52.078;21.014;2023-02-15T09:27:05;33.67;;;14.25;;
45254;SDS011;30989;52.078;21.014;2023-02-15T09:29:30;33.85;;;12.02;;
45254;SDS011;30989;52.078;21.014;2023-02-15T09:31:56;29.85;;;12.80;;
45254;SDS011;30989;52.078;21.014;2023-02-15T09:34:21;32.22;;;12.60;;
45254;SDS011;30989;52.078;21.014;2023-02-15T09:36:48;31.83;;;13.77;;
45254;SDS011;30989;52.078;21.014;2023-02-15T09:39:21;33.17;;;12.88;;
45254;SDS011;30989;52.078;21.014;2023-02-15T09:55:24;31.60;;;13.20;;
45254;SDS011;30989;52.078;21.014;2023-02-15T10:03:37;27.55;;;11.25;;
45254;SDS011;30989;52.078;21.014;2023-02-15T10:06:16;29.75;;;12.68;;
45254;SDS011;30989;52.078;21.014;2023-02-15T10:12:00;28.80;;;12.20;;
45254;SDS011;30989;52.078;21.014;2023-02-15T10:20:17;33.08;;;12.75;;
45254;SDS011;30989;52.078;21.014;2023-02-15T10:25:51;33.15;;;13.20;;
45254;SDS011;30989;52.078;21.014;2023-02-15T10:28:20;46.78;;;16.45;;
45254;SDS011;30989;52.078;21.014;2023-02-15T10:30:58;30.88;;;12.40;;
45254;SDS011;30989;52.078;21.014;2023-02-15T10:33:38;35.55;;;16.30;;
45254;SDS011;30989;52.078;21.014;2023-02-15T10:52:59;33.40;;;12.88;;
45254;SDS011;30989;52.078;21.014;2023-02-15T10:55:37;34.03;;;14.38;;
45254;SDS011;30989;52.078;21.014;2023-02-15T11:06:17;30.83;;;13.35;;
45254;SDS011;30989;52.078;21.014;2023-02-15T11:08:49;37.72;;;13.95;;
45254;SDS011;30989;52.078;21.014;2023-02-15T11:11:23;42.13;;;16.10;;
45254;SDS011;30989;52.078;21.014;2023-02-15T11:13:59;41.30;;;15.32;;
45254;SDS011;30989;52.078;21.014;2023-02-15T11:16:33;36.83;;;15.38;;
45254;SDS011;30989;52.078;21.014;2023-02-15T11:19:08;41.50;;;15.27;;
45254;SDS011;30989;52.078;21.014;2023-02-15T11:21:43;39.25;;;15.45;;
45254;SDS011;30989;52.078;21.014;2023-02-15T11:24:12;34.72;;;15.50;;
45254;SDS011;30989;52.078;21.014;2023-02-15T11:26:44;41.90;;;16.33;;
45254;SDS011;30989;52.078;21.014;2023-02-15T11:32:02;41.42;;;16.75;;
45254;SDS011;30989;52.078;21.014;2023-02-15T11:34:40;34.20;;;14.73;;
45254;SDS011;30989;52.078;21.014;2023-02-15T11:40:50;32.85;;;14.75;;
45254;SDS011;30989;52.078;21.014;2023-02-15T11:46:05;31.63;;;13.43;;
45254;SDS011;30989;52.078;21.014;2023-02-15T11:48:32;35.83;;;14.48;;
45254;SDS011;30989;52.078;21.014;2023-02-15T11:50:59;36.58;;;14.60;;
45254;SDS011;30989;52.078;21.014;2023-02-15T11:53:27;30.40;;;12.50;;
45254;SDS011;30989;52.078;21.014;2023-02-15T11:55:56;39.83;;;14.30;;
45254;SDS011;30989;52.078;21.014;2023-02-15T11:58:39;33.97;;;13.25;;
45254;SDS011;30989;52.078;21.014;2023-02-15T12:01:16;33.85;;;14.07;;
45254;SDS011;30989;52.078;21.014;2023-02-15T12:03:49;35.45;;;15.10;;
45254;SDS011;30989;52.078;21.014;2023-02-15T12:06:18;44.58;;;16.48;;
45254;SDS011;30989;52.078;21.014;2023-02-15T12:08:51;36.13;;;14.55;;
45254;SDS011;30989;52.078;21.014;2023-02-15T12:11:26;34.78;;;15.07;;
45254;SDS011;30989;52.078;21.014;2023-02-15T12:13:58;36.47;;;14.43;;
45254;SDS011;30989;52.078;21.014;2023-02-15T12:16:26;35.53;;;13.82;;
45254;SDS011;30989;52.078;21.014;2023-02-15T12:18:57;36.38;;;15.18;;
45254;SDS011;30989;52.078;21.014;2023-02-15T12:21:26;40.25;;;15.30;;
45254;SDS011;30989;52.078;21.014;2023-02-15T12:24:44;49.45;;;14.85;;
45254;SDS011;30989;52.078;21.014;2023-02-15T12:32:34;38.00;;;16.20;;
45254;SDS011;30989;52.078;21.014;2023-02-15T12:35:02;36.65;;;15.60;;
45254;SDS011;30989;52.078;21.014;2023-02-15T12:37:37;38.97;;;14.93;;
45254;SDS011;30989;52.078;21.014;2023-02-15T12:40:20;44.97;;;17.42;;
45254;SDS011;30989;52.078;21.014;2023-02-15T12:42:51;40.33;;;15.52;;
45254;SDS011;30989;52.078;21.014;2023-02-15T12:45:27;41.83;;;17.10;;
45254;SDS011;30989;52.078;21.014;2023-02-15T12:50:41;47.20;;;18.45;;
45254;SDS011;30989;52.078;21.014;2023-02-15T12:53:22;41.70;;;16.38;;
45254;SDS011;30989;52.078;21.014;2023-02-15T12:55:57;45.15;;;18.25;;
45254;SDS011;30989;52.078;21.014;2023-02-15T12:58:25;42.58;;;15.00;;
45254;SDS011;30989;52.078;21.014;2023-02-15T13:03:59;56.05;;;20.48;;
45254;SDS011;30989;52.078;21.014;2023-02-15T13:06:27;49.80;;;19.77;;
45254;SDS011;30989;52.078;21.014;2023-02-15T13:08:54;42.33;;;18.63;;
45254;SDS011;30989;52.078;21.014;2023-02-15T13:11:29;47.28;;;19.00;;
45254;SDS011;30989;52.078;21.014;2023-02-15T13:14:03;46.15;;;18.20;;
45254;SDS011;30989;52.078;21.014;2023-02-15T13:16:40;43.90;;;19.20;;
45254;SDS011;30989;52.078;21.014;2023-02-15T13:19:11;44.67;;;18.67;;
45254;SDS011;30989;52.078;21.014;2023-02-15T13:21:41;43.22;;;17.65;;
45254;SDS011;30989;52.078;21.014;2023-02-15T13:24:25;49.75;;;20.05;;
45254;SDS011;30989;52.078;21.014;2023-02-15T13:26:55;46.25;;;19.08;;
45254;SDS011;30989;52.078;21.014;2023-02-15T13:29:26;46.33;;;18.67;;
45254;SDS011;30989;52.078;21.014;2023-02-15T13:31:54;46.47;;;18.77;;
45254;SDS011;30989;52.078;21.014;2023-02-15T13:34:25;48.85;;;18.63;;
45254;SDS011;30989;52.078;21.014;2023-02-15T13:42:22;54.42;;;19.02;;
45254;SDS011;30989;52.078;21.014;2023-02-15T13:45:09;45.55;;;19.70;;
45254;SDS011;30989;52.078;21.014;2023-02-15T13:48:23;49.20;;;19.23;;
45254;SDS011;30989;52.078;21.014;2023-02-15T13:56:25;42.00;;;15.95;;
45254;SDS011;30989;52.078;21.014;2023-02-15T14:01:39;40.45;;;14.85;;
45254;SDS011;30989;52.078;21.014;2023-02-15T14:04:34;42.38;;;17.02;;
45254;SDS011;30989;52.078;21.014;2023-02-15T14:07:06;42.13;;;16.30;;
45254;SDS011;30989;52.078;21.014;2023-02-15T14:15:41;43.05;;;17.20;;
45254;SDS011;30989;52.078;21.014;2023-02-15T14:21:06;43.78;;;16.50;;
45254;SDS011;30989;52.078;21.014;2023-02-15T14:26:06;39.28;;;16.85;;
45254;SDS011;30989;52.078;21.014;2023-02-15T14:31:27;41.33;;;16.80;;
45254;SDS011;30989;52.078;21.014;2023-02-15T14:33:59;44.08;;;15.90;;
45254;SDS011;30989;52.078;21.014;2023-02-15T14:36:25;43.08;;;17.60;;
45254;SDS011;30989;52.078;21.014;2023-02-15T14:42:05;47.55;;;19.00;;
45254;SDS011;30989;52.078;21.014;2023-02-15T14:44:40;49.65;;;18.10;;
45254;SDS011;30989;52.078;21.014;2023-02-15T14:47:15;46.70;;;17.77;;
45254;SDS011;30989;52.078;21.014;2023-02-15T14:49:46;48.50;;;18.77;;
45254;SDS011;30989;52.078;21.014;2023-02-15T14:52:12;47.33;;;19.83;;
45254;SDS011;30989;52.078;21.014;2023-02-15T14:59:37;41.85;;;15.98;;
45254;SDS011;30989;52.078;21.014;2023-02-15T15:09:57;40.10;;;16.77;;
45254;SDS011;30989;52.078;21.014;2023-02-15T15:14:51;47.50;;;20.20;;
45254;SDS011;30989;52.078;21.014;2023-02-15T15:20:11;47.15;;;17.45;;
45254;SDS011;30989;52.078;21.014;2023-02-15T15:25:47;41.88;;;16.73;;
45254;SDS011;30989;52.078;21.014;2023-02-15T15:31:23;42.55;;;16.67;;
45254;SDS011;30989;52.078;21.014;2023-02-15T15:42:22;39.25;;;15.88;;
45254;SDS011;30989;52.078;21.014;2023-02-15T15:50:53;54.47;;;21.48;;
45254;SDS011;30989;52.078;21.014;2023-02-15T15:53:25;30.77;;;13.07;;
45254;SDS011;30989;52.078;21.014;2023-02-15T15:55:58;45.72;;;16.58;;
45254;SDS011;30989;52.078;21.014;2023-02-15T15:58:27;39.38;;;16.77;;
45254;SDS011;30989;52.078;21.014;2023-02-15T16:00:59;45.13;;;17.95;;
45254;SDS011;30989;52.078;21.014;2023-02-15T16:03:29;38.30;;;17.60;;
45254;SDS011;30989;52.078;21.014;2023-02-15T16:05:55;50.90;;;18.40;;
45254;SDS011;30989;52.078;21.014;2023-02-15T16:11:11;45.85;;;18.52;;
45254;SDS011;30989;52.078;21.014;2023-02-15T16:13:41;45.78;;;18.30;;
45254;SDS011;30989;52.078;21.014;2023-02-15T16:16:08;59.42;;;19.98;;
45254;SDS011;30989;52.078;21.014;2023-02-15T16:18:37;40.22;;;16.25;;
45254;SDS011;30989;52.078;21.014;2023-02-15T16:21:12;47.95;;;18.92;;
45254;SDS011;30989;52.078;21.014;2023-02-15T16:26:32;46.20;;;17.77;;
45254;SDS011;30989;52.078;21.014;2023-02-15T16:29:16;41.85;;;17.67;;
45254;SDS011;30989;52.078;21.014;2023-02-15T16:34:27;45.45;;;17.63;;
45254;SDS011;30989;52.078;21.014;2023-02-15T16:37:13;50.35;;;19.85;;
45254;SDS011;30989;52.078;21.014;2023-02-15T16:39:40;34.03;;;15.02;;
45254;SDS011;30989;52.078;21.014;2023-02-15T16:42:07;41.95;;;17.73;;
45254;SDS011;30989;52.078;21.014;2023-02-15T16:44:34;55.15;;;21.42;;
45254;SDS011;30989;52.078;21.014;2023-02-15T16:46:59;66.93;;;24.70;;
45254;SDS011;30989;52.078;21.014;2023-02-15T16:49:27;42.95;;;19.13;;
45254;SDS011;30989;52.078;21.014;2023-02-15T16:51:58;40.88;;;15.95;;
45254;SDS011;30989;52.078;21.014;2023-02-15T16:54:26;35.65;;;14.35;;
45254;SDS011;30989;52.078;21.014;2023-02-15T16:56:53;33.85;;;13.77;;
45254;SDS011;30989;52.078;21.014;2023-02-15T16:59:23;36.33;;;15.10;;
45254;SDS011;30989;52.078;21.014;2023-02-15T17:01:57;40.80;;;15.77;;
45254;SDS011;30989;52.078;21.014;2023-02-15T17:04:27;36.33;;;15.52;;
45254;SDS011;30989;52.078;21.014;2023-02-15T17:09:29;42.08;;;17.15;;
45254;SDS011;30989;52.078;21.014;2023-02-15T17:11:56;46.15;;;17.98;;
45254;SDS011;30989;52.078;21.014;2023-02-15T17:14:31;39.08;;;17.60;;
45254;SDS011;30989;52.078;21.014;2023-02-15T17:17:10;45.35;;;19.10;;
45254;SDS011;30989;52.078;21.014;2023-02-15T17:19:42;42.65;;;17.63;;
45254;SDS011;30989;52.078;21.014;2023-02-15T17:22:18;46.58;;;18.17;;
45254;SDS011;30989;52.078;21.014;2023-02-15T17:24:47;43.88;;;18.73;;
45254;SDS011;30989;52.078;21.014;2023-02-15T17:27:16;45.08;;;17.42;;
45254;SDS011;30989;52.078;21.014;2023-02-15T17:29:56;50.10;;;21.98;;
45254;SDS011;30989;52.078;21.014;2023-02-15T17:32:25;42.30;;;18.13;;
45254;SDS011;30989;52.078;21.014;2023-02-15T17:40:35;57.70;;;20.50;;
45254;SDS011;30989;52.078;21.014;2023-02-15T17:42:55;48.25;;;18.05;;
45254;SDS011;30989;52.078;21.014;2023-02-15T17:45:21;46.42;;;20.20;;
45254;SDS011;30989;52.078;21.014;2023-02-15T17:47:49;51.38;;;18.77;;